TS19 weather

Gws Inc Construction Heliport
Houston, Texas, United States

Public forecast

Using degrees Fahrenheit for public forecast. Weather courtesy of forecast.io.

METAR (pilot weather report)

Closest report is William P Hobby Airport, 6.7 nm (12.5 km) ESE. Retrieved 2019/07/20 14:53 UTC (23 minutes ago):

KHOU 201453Z 19006KT 10SM SCT021 SCT029 BKN250 31/24 A3000 RMK AO2 SLP163 T03060239 50005

TAF (pilot weather forecast)

Closest forecast is William P Hobby Airport, 6.7 nm (12.5 km) ESE. Retrieved 2019/07/20 12:33 UTC (3 hours ago):

TAF KHOU 201130Z 2012/2112 19003KT P6SM SCT018 SCT045 BKN250 FM201500 16006KT P6SM SCT015 BKN045 FM202100 15012KT P6SM SCT045 BKN150 FM210100 15009KT P6SM FEW025 SCT250 FM210800 VRB03KT P6SM SCT025 BKN200